sensor_id;sensor_type;location;lat;lon;timestamp;pressure;altitude;pressure_sealevel;temperature;humidity
26443;BME280;5563;52.296;6.806;2023-05-09T00:01:57;101664.50;;;14.36;96.68
26443;BME280;5563;52.296;6.806;2023-05-09T00:04:25;101685.06;;;14.47;96.38
26443;BME280;5563;52.296;6.806;2023-05-09T00:06:58;101650.63;;;14.31;96.05
26443;BME280;5563;52.296;6.806;2023-05-09T00:09:35;101646.66;;;14.35;96.23
26443;BME280;5563;52.296;6.806;2023-05-09T00:12:08;101647.03;;;14.42;96.08
26443;BME280;5563;52.296;6.806;2023-05-09T00:14:38;101635.69;;;14.38;96.25
26443;BME280;5563;52.296;6.806;2023-05-09T00:17:15;101629.88;;;14.33;95.90
26443;BME280;5563;52.296;6.806;2023-05-09T00:19:43;101649.56;;;14.43;95.99
26443;BME280;5563;52.296;6.806;2023-05-09T00:22:24;101642.50;;;14.42;96.09
26443;BME280;5563;52.296;6.806;2023-05-09T00:24:57;101633.97;;;14.37;96.02
26443;BME280;5563;52.296;6.806;2023-05-09T00:27:30;101643.03;;;14.36;95.81
26443;BME280;5563;52.296;6.806;2023-05-09T00:29:57;101635.25;;;14.33;95.54
26443;BME280;5563;52.296;6.806;2023-05-09T00:32:36;101638.16;;;14.30;95.38
26443;BME280;5563;52.296;6.806;2023-05-09T00:35:15;101633.78;;;14.29;95.80
26443;BME280;5563;52.296;6.806;2023-05-09T00:37:53;101625.97;;;14.26;95.90
26443;BME280;5563;52.296;6.806;2023-05-09T00:40:23;101649.84;;;14.40;95.94
26443;BME280;5563;52.296;6.806;2023-05-09T00:42:58;101623.19;;;14.28;95.85
26443;BME280;5563;52.296;6.806;2023-05-09T00:45:31;101622.06;;;14.30;95.83
26443;BME280;5563;52.296;6.806;2023-05-09T00:47:58;101625.22;;;14.35;96.00
26443;BME280;5563;52.296;6.806;2023-05-09T00:50:32;101613.06;;;14.31;96.09
26443;BME280;5563;52.296;6.806;2023-05-09T00:53:09;101611.09;;;14.33;96.29
26443;BME280;5563;52.296;6.806;2023-05-09T00:55:47;101600.88;;;14.27;96.48
26443;BME280;5563;52.296;6.806;2023-05-09T00:58:20;101605.84;;;14.32;96.65
26443;BME280;5563;52.296;6.806;2023-05-09T01:01:00;101611.94;;;14.34;96.81
26443;BME280;5563;52.296;6.806;2023-05-09T01:03:29;101596.09;;;14.31;96.81
26443;BME280;5563;52.296;6.806;2023-05-09T01:06:12;101591.59;;;14.31;96.76
26443;BME280;5563;52.296;6.806;2023-05-09T01:09:02;101593.28;;;14.32;96.30
26443;BME280;5563;52.296;6.806;2023-05-09T01:17:43;101596.09;;;14.31;96.44
26443;BME280;5563;52.296;6.806;2023-05-09T01:20:19;101585.97;;;14.23;96.35
26443;BME280;5563;52.296;6.806;2023-05-09T01:26:02;101568.09;;;14.13;96.67
26443;BME280;5563;52.296;6.806;2023-05-09T01:31:26;101567.25;;;14.12;97.08
26443;BME280;5563;52.296;6.806;2023-05-09T01:34:04;101552.56;;;14.06;97.32
26443;BME280;5563;52.296;6.806;2023-05-09T01:36:43;101555.94;;;14.08;97.16
26443;BME280;5563;52.296;6.806;2023-05-09T01:39:17;101543.19;;;14.01;97.10
26443;BME280;5563;52.296;6.806;2023-05-09T01:42:00;101555.34;;;14.05;97.16
26443;BME280;5563;52.296;6.806;2023-05-09T01:44:42;101539.19;;;13.95;97.06
26443;BME280;5563;52.296;6.806;2023-05-09T01:47:18;101546.84;;;14.00;97.05
26443;BME280;5563;52.296;6.806;2023-05-09T01:49:46;101537.34;;;13.96;97.29
26443;BME280;5563;52.296;6.806;2023-05-09T01:52:24;101556.19;;;14.05;97.31
26443;BME280;5563;52.296;6.806;2023-05-09T01:55:01;101533.38;;;13.90;97.29
26443;BME280;5563;52.296;6.806;2023-05-09T01:57:44;101541.88;;;13.95;97.28
26443;BME280;5563;52.296;6.806;2023-05-09T02:00:18;101542.59;;;13.97;97.46
26443;BME280;5563;52.296;6.806;2023-05-09T02:02:45;101542.00;;;13.94;97.36
26443;BME280;5563;52.296;6.806;2023-05-09T02:05:25;101551.00;;;13.93;97.47
26443;BME280;5563;52.296;6.806;2023-05-09T02:08:03;101524.84;;;13.85;97.01
26443;BME280;5563;52.296;6.806;2023-05-09T02:10:34;101533.00;;;13.84;97.13
26443;BME280;5563;52.296;6.806;2023-05-09T02:13:11;101528.63;;;13.83;97.13
26443;BME280;5563;52.296;6.806;2023-05-09T02:15:39;101527.66;;;13.84;97.23
26443;BME280;5563;52.296;6.806;2023-05-09T02:18:13;101532.03;;;13.85;97.17
26443;BME280;5563;52.296;6.806;2023-05-09T02:20:47;101541.66;;;13.87;97.35
26443;BME280;5563;52.296;6.806;2023-05-09T02:23:16;101529.50;;;13.83;97.11
26443;BME280;5563;52.296;6.806;2023-05-09T02:25:50;101526.81;;;13.83;97.27
26443;BME280;5563;52.296;6.806;2023-05-09T02:28:29;101534.47;;;13.88;97.13
26443;BME280;5563;52.296;6.806;2023-05-09T02:31:04;101529.38;;;13.85;97.01
26443;BME280;5563;52.296;6.806;2023-05-09T02:33:40;101524.50;;;13.79;96.98
26443;BME280;5563;52.296;6.806;2023-05-09T02:36:23;101533.13;;;13.82;96.91
26443;BME280;5563;52.296;6.806;2023-05-09T02:38:58;101526.22;;;13.80;96.77
26443;BME280;5563;52.296;6.806;2023-05-09T02:41:26;101517.31;;;13.79;96.69
26443;BME280;5563;52.296;6.806;2023-05-09T02:44:06;101522.09;;;13.76;96.47
26443;BME280;5563;52.296;6.806;2023-05-09T02:46:40;101529.25;;;13.75;96.61
26443;BME280;5563;52.296;6.806;2023-05-09T02:49:14;101527.31;;;13.77;96.75
26443;BME280;5563;52.296;6.806;2023-05-09T02:51:57;101529.88;;;13.79;96.69
26443;BME280;5563;52.296;6.806;2023-05-09T02:54:31;101516.88;;;13.74;96.84
26443;BME280;5563;52.296;6.806;2023-05-09T02:57:00;101506.28;;;13.73;97.13
26443;BME280;5563;52.296;6.806;2023-05-09T02:59:39;101517.19;;;13.81;97.24
26443;BME280;5563;52.296;6.806;2023-05-09T03:02:12;101501.75;;;13.73;97.13
26443;BME280;5563;52.296;6.806;2023-05-09T03:04:48;101518.88;;;13.82;97.40
26443;BME280;5563;52.296;6.806;2023-05-09T03:07:18;101494.81;;;13.71;97.19
26443;BME280;5563;52.296;6.806;2023-05-09T03:09:58;101517.91;;;13.83;97.56
26443;BME280;5563;52.296;6.806;2023-05-09T03:12:30;101490.28;;;13.71;97.46
26443;BME280;5563;52.296;6.806;2023-05-09T03:15:07;101501.09;;;13.81;97.51
26443;BME280;5563;52.296;6.806;2023-05-09T03:17:42;101498.88;;;13.86;97.64
26443;BME280;5563;52.296;6.806;2023-05-09T03:20:09;101501.31;;;13.89;97.43
26443;BME280;5563;52.296;6.806;2023-05-09T03:22:45;101483.06;;;13.83;97.33
26443;BME280;5563;52.296;6.806;2023-05-09T03:25:15;101484.03;;;13.82;97.06
26443;BME280;5563;52.296;6.806;2023-05-09T03:27:49;101478.94;;;13.79;96.79
26443;BME280;5563;52.296;6.806;2023-05-09T03:30:23;101480.75;;;13.78;96.33
26443;BME280;5563;52.296;6.806;2023-05-09T03:32:50;101485.03;;;13.81;96.07
26443;BME280;5563;52.296;6.806;2023-05-09T03:35:26;101479.53;;;13.82;96.03
26443;BME280;5563;52.296;6.806;2023-05-09T03:38:02;101476.72;;;13.84;96.01
26443;BME280;5563;52.296;6.806;2023-05-09T03:40:29;101465.28;;;13.82;95.97
26443;BME280;5563;52.296;6.806;2023-05-09T03:43:12;101473.81;;;13.87;95.84
26443;BME280;5563;52.296;6.806;2023-05-09T03:45:39;101475.09;;;13.92;95.29
26443;BME280;5563;52.296;6.806;2023-05-09T03:48:15;101464.91;;;13.86;95.25
26443;BME280;5563;52.296;6.806;2023-05-09T03:50:42;101457.72;;;13.87;95.28
26443;BME280;5563;52.296;6.806;2023-05-09T03:53:17;101456.31;;;13.92;95.52
26443;BME280;5563;52.296;6.806;2023-05-09T03:55:44;101461.00;;;13.90;95.49
26443;BME280;5563;52.296;6.806;2023-05-09T03:58:18;101455.03;;;13.87;95.44
26443;BME280;5563;52.296;6.806;2023-05-09T04:00:45;101464.94;;;13.96;95.45
26443;BME280;5563;52.296;6.806;2023-05-09T04:03:19;101472.03;;;13.97;95.42
26443;BME280;5563;52.296;6.806;2023-05-09T04:05:55;101450.50;;;13.87;95.40
26443;BME280;5563;52.296;6.806;2023-05-09T04:08:22;101446.72;;;13.90;95.48
26443;BME280;5563;52.296;6.806;2023-05-09T04:10:59;101453.41;;;13.95;95.72
26443;BME280;5563;52.296;6.806;2023-05-09T04:13:28;101457.19;;;13.93;95.52
26443;BME280;5563;52.296;6.806;2023-05-09T04:16:04;101471.75;;;14.00;95.96
26443;BME280;5563;52.296;6.806;2023-05-09T04:18:33;101447.44;;;13.92;95.86
26443;BME280;5563;52.296;6.806;2023-05-09T04:21:09;101450.97;;;13.92;95.88
26443;BME280;5563;52.296;6.806;2023-05-09T04:23:36;101446.44;;;13.93;96.16
26443;BME280;5563;52.296;6.806;2023-05-09T04:26:14;101455.94;;;13.97;95.90
26443;BME280;5563;52.296;6.806;2023-05-09T04:28:50;101444.91;;;13.90;96.00
26443;BME280;5563;52.296;6.806;2023-05-09T04:31:25;101445.59;;;13.92;96.00
26443;BME280;5563;52.296;6.806;2023-05-09T04:33:52;101446.31;;;13.94;96.18
26443;BME280;5563;52.296;6.806;2023-05-09T04:36:26;101435.16;;;13.89;96.02
26443;BME280;5563;52.296;6.806;2023-05-09T04:38:55;101450.00;;;13.93;95.99
26443;BME280;5563;52.296;6.806;2023-05-09T04:41:25;101436.59;;;13.93;96.16
26443;BME280;5563;52.296;6.806;2023-05-09T04:44:03;101426.00;;;13.92;96.00
26443;BME280;5563;52.296;6.806;2023-05-09T04:46:40;101425.00;;;13.93;95.89
26443;BME280;5563;52.296;6.806;2023-05-09T04:49:16;101433.78;;;13.95;95.71
26443;BME280;5563;52.296;6.806;2023-05-09T04:51:46;101424.88;;;13.94;95.78
26443;BME280;5563;52.296;6.806;2023-05-09T04:54:38;101415.00;;;13.95;95.65
26443;BME280;5563;52.296;6.806;2023-05-09T04:57:25;101421.09;;;13.97;95.60
26443;BME280;5563;52.296;6.806;2023-05-09T05:00:02;101421.41;;;14.03;95.52
26443;BME280;5563;52.296;6.806;2023-05-09T05:02:32;101428.34;;;14.06;95.72
26443;BME280;5563;52.296;6.806;2023-05-09T05:05:07;101417.41;;;13.98;95.65
26443;BME280;5563;52.296;6.806;2023-05-09T05:07:44;101405.59;;;14.00;95.28
26443;BME280;5563;52.296;6.806;2023-05-09T05:10:18;101421.16;;;14.06;95.23
26443;BME280;5563;52.296;6.806;2023-05-09T05:12:45;101427.13;;;14.10;95.33
26443;BME280;5563;52.296;6.806;2023-05-09T05:15:24;101432.78;;;14.17;95.36
26443;BME280;5563;52.296;6.806;2023-05-09T05:17:52;101415.91;;;14.05;95.14
26443;BME280;5563;52.296;6.806;2023-05-09T05:20:26;101401.66;;;14.04;95.57
26443;BME280;5563;52.296;6.806;2023-05-09T05:23:02;101416.84;;;14.15;95.55
26443;BME280;5563;52.296;6.806;2023-05-09T05:25:46;101431.53;;;14.21;95.00
26443;BME280;5563;52.296;6.806;2023-05-09T05:28:13;101422.19;;;14.15;94.74
26443;BME280;5563;52.296;6.806;2023-05-09T05:30:50;101411.03;;;14.10;95.08
26443;BME280;5563;52.296;6.806;2023-05-09T05:33:17;101426.28;;;14.19;95.05
26443;BME280;5563;52.296;6.806;2023-05-09T05:35:50;101396.63;;;14.11;95.09
26443;BME280;5563;52.296;6.806;2023-05-09T05:38:17;101399.16;;;14.13;95.36
26443;BME280;5563;52.296;6.806;2023-05-09T05:40:50;101409.22;;;14.20;95.08
26443;BME280;5563;52.296;6.806;2023-05-09T05:43:26;101392.56;;;14.17;95.20
26443;BME280;5563;52.296;6.806;2023-05-09T05:46:05;101398.94;;;14.25;95.29
26443;BME280;5563;52.296;6.806;2023-05-09T05:48:32;101388.97;;;14.27;95.56
26443;BME280;5563;52.296;6.806;2023-05-09T05:51:06;101389.81;;;14.28;95.38
26443;BME280;5563;52.296;6.806;2023-05-09T05:53:33;101381.88;;;14.26;95.56
26443;BME280;5563;52.296;6.806;2023-05-09T05:56:09;101394.38;;;14.37;95.65
26443;BME280;5563;52.296;6.806;2023-05-09T05:58:45;101397.66;;;14.40;95.80
26443;BME280;5563;52.296;6.806;2023-05-09T06:01:12;101403.84;;;14.41;95.74
26443;BME280;5563;52.296;6.806;2023-05-09T06:03:48;101395.06;;;14.39;95.62
26443;BME280;5563;52.296;6.806;2023-05-09T06:06:31;101383.25;;;14.41;95.92
26443;BME280;5563;52.296;6.806;2023-05-09T06:09:06;101382.38;;;14.41;95.48
26443;BME280;5563;52.296;6.806;2023-05-09T06:11:33;101390.88;;;14.46;95.66
26443;BME280;5563;52.296;6.806;2023-05-09T06:14:07;101375.50;;;14.48;95.91
26443;BME280;5563;52.296;6.806;2023-05-09T06:16:33;101375.09;;;14.52;95.46
26443;BME280;5563;52.296;6.806;2023-05-09T06:19:08;101361.81;;;14.51;95.72
26443;BME280;5563;52.296;6.806;2023-05-09T06:21:35;101351.66;;;14.54;95.38
26443;BME280;5563;52.296;6.806;2023-05-09T06:24:13;101361.97;;;14.59;95.76
26443;BME280;5563;52.296;6.806;2023-05-09T06:27:00;101363.56;;;14.71;95.63
26443;BME280;5563;52.296;6.806;2023-05-09T06:29:36;101368.97;;;14.80;95.29
26443;BME280;5563;52.296;6.806;2023-05-09T06:32:05;101351.84;;;14.81;95.45
26443;BME280;5563;52.296;6.806;2023-05-09T06:34:39;101362.75;;;14.99;95.39
26443;BME280;5563;52.296;6.806;2023-05-09T06:37:20;101347.22;;;15.12;95.69
26443;BME280;5563;52.296;6.806;2023-05-09T06:39:47;101344.81;;;15.28;95.23
26443;BME280;5563;52.296;6.806;2023-05-09T06:42:27;101342.31;;;15.46;95.09
26443;BME280;5563;52.296;6.806;2023-05-09T06:45:05;101333.22;;;15.56;93.86
26443;BME280;5563;52.296;6.806;2023-05-09T06:47:58;101334.34;;;15.63;92.99
26443;BME280;5563;52.296;6.806;2023-05-09T06:50:42;101346.94;;;15.82;92.93
26443;BME280;5563;52.296;6.806;2023-05-09T06:53:19;101333.63;;;15.80;91.10
26443;BME280;5563;52.296;6.806;2023-05-09T06:55:55;101338.56;;;15.75;89.83
26443;BME280;5563;52.296;6.806;2023-05-09T06:58:29;101317.53;;;15.61;90.58
26443;BME280;5563;52.296;6.806;2023-05-09T07:00:58;101326.00;;;15.66;90.32
26443;BME280;5563;52.296;6.806;2023-05-09T07:03:32;101318.38;;;15.62;90.76
26443;BME280;5563;52.296;6.806;2023-05-09T07:05:58;101324.75;;;15.61;90.18
26443;BME280;5563;52.296;6.806;2023-05-09T07:08:36;101327.84;;;15.56;89.67
26443;BME280;5563;52.296;6.806;2023-05-09T07:11:02;101317.56;;;15.52;89.51
26443;BME280;5563;52.296;6.806;2023-05-09T07:13:38;101317.72;;;15.50;89.71
26443;BME280;5563;52.296;6.806;2023-05-09T07:16:05;101321.06;;;15.52;90.05
26443;BME280;5563;52.296;6.806;2023-05-09T07:18:43;101311.22;;;15.43;89.47
26443;BME280;5563;52.296;6.806;2023-05-09T07:21:17;101317.25;;;15.45;89.92
26443;BME280;5563;52.296;6.806;2023-05-09T07:23:44;101294.75;;;15.37;90.07
26443;BME280;5563;52.296;6.806;2023-05-09T07:26:17;101304.69;;;15.46;89.88
26443;BME280;5563;52.296;6.806;2023-05-09T07:28:50;101298.91;;;15.50;89.57
26443;BME280;5563;52.296;6.806;2023-05-09T07:31:24;101289.25;;;15.48;90.15
26443;BME280;5563;52.296;6.806;2023-05-09T07:33:51;101305.09;;;15.51;90.28
26443;BME280;5563;52.296;6.806;2023-05-09T07:36:24;101295.66;;;15.47;90.13
26443;BME280;5563;52.296;6.806;2023-05-09T07:38:51;101284.44;;;15.42;89.93
26443;BME280;5563;52.296;6.806;2023-05-09T07:41:25;101286.56;;;15.48;89.65
26443;BME280;5563;52.296;6.806;2023-05-09T07:43:58;101295.88;;;15.63;89.17
26443;BME280;5563;52.296;6.806;2023-05-09T07:46:32;101289.66;;;15.62;89.33
26443;BME280;5563;52.296;6.806;2023-05-09T07:48:59;101286.53;;;15.67;88.70
26443;BME280;5563;52.296;6.806;2023-05-09T07:51:32;101286.09;;;15.71;88.05
26443;BME280;5563;52.296;6.806;2023-05-09T07:53:59;101283.53;;;15.70;88.20
26443;BME280;5563;52.296;6.806;2023-05-09T07:56:34;101283.13;;;15.74;88.31
26443;BME280;5563;52.296;6.806;2023-05-09T07:59:01;101288.75;;;15.81;87.30
26443;BME280;5563;52.296;6.806;2023-05-09T08:01:35;101286.34;;;15.87;87.45
26443;BME280;5563;52.296;6.806;2023-05-09T08:04:02;101274.72;;;15.87;87.65
26443;BME280;5563;52.296;6.806;2023-05-09T08:06:37;101267.91;;;15.92;87.69
26443;BME280;5563;52.296;6.806;2023-05-09T08:09:04;101259.22;;;15.98;88.44
26443;BME280;5563;52.296;6.806;2023-05-09T08:11:38;101258.25;;;15.99;87.48
26443;BME280;5563;52.296;6.806;2023-05-09T08:14:11;101243.94;;;15.99;87.20
26443;BME280;5563;52.296;6.806;2023-05-09T08:16:46;101257.53;;;16.07;87.50
26443;BME280;5563;52.296;6.806;2023-05-09T08:19:20;101238.56;;;15.99;87.71
26443;BME280;5563;52.296;6.806;2023-05-09T08:21:49;101250.59;;;16.04;87.46
26443;BME280;5563;52.296;6.806;2023-05-09T08:24:22;101235.31;;;16.05;87.32
26443;BME280;5563;52.296;6.806;2023-05-09T08:26:49;101256.59;;;16.16;86.79
26443;BME280;5563;52.296;6.806;2023-05-09T08:29:23;101228.00;;;16.15;87.25
26443;BME280;5563;52.296;6.806;2023-05-09T08:31:56;101236.97;;;16.33;86.41
26443;BME280;5563;52.296;6.806;2023-05-09T08:34:23;101220.91;;;16.41;86.32
26443;BME280;5563;52.296;6.806;2023-05-09T08:36:57;101233.28;;;16.79;85.75
26443;BME280;5563;52.296;6.806;2023-05-09T08:39:30;101224.63;;;16.93;84.72
26443;BME280;5563;52.296;6.806;2023-05-09T08:41:58;101213.69;;;17.12;83.64
26443;BME280;5563;52.296;6.806;2023-05-09T08:44:32;101219.03;;;17.29;83.45
26443;BME280;5563;52.296;6.806;2023-05-09T08:47:05;101219.09;;;17.38;81.37
26443;BME280;5563;52.296;6.806;2023-05-09T08:49:39;101208.66;;;17.35;80.32
26443;BME280;5563;52.296;6.806;2023-05-09T08:52:13;101203.91;;;17.37;81.37
26443;BME280;5563;52.296;6.806;2023-05-09T08:54:40;101189.72;;;17.26;81.43
26443;BME280;5563;52.296;6.806;2023-05-09T08:57:14;101210.41;;;17.26;81.83
26443;BME280;5563;52.296;6.806;2023-05-09T08:59:41;101206.53;;;17.20;81.59
26443;BME280;5563;52.296;6.806;2023-05-09T09:02:15;101200.56;;;17.35;82.26
26443;BME280;5563;52.296;6.806;2023-05-09T09:04:42;101216.63;;;17.70;81.64
26443;BME280;5563;52.296;6.806;2023-05-09T09:07:18;101197.38;;;17.98;81.32
26443;BME280;5563;52.296;6.806;2023-05-09T09:09:47;101202.34;;;18.27;78.34
26443;BME280;5563;52.296;6.806;2023-05-09T09:12:22;101189.22;;;18.32;78.20
26443;BME280;5563;52.296;6.806;2023-05-09T09:14:52;101195.00;;;18.45;78.11
26443;BME280;5563;52.296;6.806;2023-05-09T09:17:27;101183.78;;;18.24;78.84
26443;BME280;5563;52.296;6.806;2023-05-09T09:20:04;101194.41;;;18.17;77.00
26443;BME280;5563;52.296;6.806;2023-05-09T09:22:42;101188.63;;;18.04;77.02
26443;BME280;5563;52.296;6.806;2023-05-09T09:25:15;101166.97;;;17.88;78.86
26443;BME280;5563;52.296;6.806;2023-05-09T09:27:42;101177.31;;;18.01;78.07
26443;BME280;5563;52.296;6.806;2023-05-09T09:30:16;101175.28;;;18.03;78.16
26443;BME280;5563;52.296;6.806;2023-05-09T09:32:50;101164.69;;;18.09;79.55
26443;BME280;5563;52.296;6.806;2023-05-09T09:35:17;101186.88;;;18.37;77.14
26443;BME280;5563;52.296;6.806;2023-05-09T09:37:56;101177.47;;;18.57;77.94
26443;BME280;5563;52.296;6.806;2023-05-09T09:40:31;101160.94;;;18.68;76.18
26443;BME280;5563;52.296;6.806;2023-05-09T09:42:57;101165.00;;;18.88;76.24
26443;BME280;5563;52.296;6.806;2023-05-09T09:45:31;101169.38;;;19.05;76.00
26443;BME280;5563;52.296;6.806;2023-05-09T09:47:58;101162.63;;;19.01;75.23
26443;BME280;5563;52.296;6.806;2023-05-09T09:50:38;101143.03;;;18.91;75.19
26443;BME280;5563;52.296;6.806;2023-05-09T09:53:05;101129.22;;;18.78;75.27
26443;BME280;5563;52.296;6.806;2023-05-09T09:55:48;101145.06;;;18.81;76.65
26443;BME280;5563;52.296;6.806;2023-05-09T09:58:17;101153.03;;;18.91;75.80
26443;BME280;5563;52.296;6.806;2023-05-09T10:01:04;101115.84;;;18.93;76.24
26443;BME280;5563;52.296;6.806;2023-05-09T10:03:41;101129.81;;;19.20;74.81
26443;BME280;5563;52.296;6.806;2023-05-09T10:06:16;101115.59;;;19.26;74.12
26443;BME280;5563;52.296;6.806;2023-05-09T10:08:44;101125.03;;;19.47;73.67
26443;BME280;5563;52.296;6.806;2023-05-09T10:11:19;101104.13;;;19.24;72.41
26443;BME280;5563;52.296;6.806;2023-05-09T10:13:47;101126.56;;;19.49;75.06
26443;BME280;5563;52.296;6.806;2023-05-09T10:16:20;101092.41;;;19.48;73.05
26443;BME280;5563;52.296;6.806;2023-05-09T10:19:09;101105.19;;;19.70;73.52
26443;BME280;5563;52.296;6.806;2023-05-09T10:21:38;101095.41;;;19.61;72.33
26443;BME280;5563;52.296;6.806;2023-05-09T10:24:12;101095.66;;;19.44;70.42
26443;BME280;5563;52.296;6.806;2023-05-09T10:26:42;101098.56;;;19.26;73.08
26443;BME280;5563;52.296;6.806;2023-05-09T10:29:22;101112.59;;;19.13;72.75
26443;BME280;5563;52.296;6.806;2023-05-09T10:31:53;101098.28;;;18.89;74.18
26443;BME280;5563;52.296;6.806;2023-05-09T10:34:32;101105.72;;;18.79;74.35
26443;BME280;5563;52.296;6.806;2023-05-09T10:37:00;101106.41;;;18.81;75.31
26443;BME280;5563;52.296;6.806;2023-05-09T10:39:35;101075.31;;;18.77;73.61
26443;BME280;5563;52.296;6.806;2023-05-09T10:42:03;101063.00;;;18.90;74.36
26443;BME280;5563;52.296;6.806;2023-05-09T10:44:45;101071.75;;;19.08;73.83
26443;BME280;5563;52.296;6.806;2023-05-09T10:47:12;101062.78;;;19.08;73.75
26443;BME280;5563;52.296;6.806;2023-05-09T10:49:48;101079.81;;;19.24;73.80
26443;BME280;5563;52.296;6.806;2023-05-09T10:52:15;101060.72;;;19.18;73.70
26443;BME280;5563;52.296;6.806;2023-05-09T10:54:58;101073.06;;;19.12;73.07
26443;BME280;5563;52.296;6.806;2023-05-09T10:57:38;101074.94;;;19.12;73.88
26443;BME280;5563;52.296;6.806;2023-05-09T11:00:11;101059.09;;;18.93;72.61
26443;BME280;5563;52.296;6.806;2023-05-09T11:03:05;101052.00;;;18.84;73.91
26443;BME280;5563;52.296;6.806;2023-05-09T11:05:40;101057.41;;;18.84;73.45
26443;BME280;5563;52.296;6.806;2023-05-09T11:08:27;101052.69;;;18.86;73.88
26443;BME280;5563;52.296;6.806;2023-05-09T11:11:07;101042.56;;;18.88;73.05
26443;BME280;5563;52.296;6.806;2023-05-09T11:13:47;101033.78;;;18.94;74.25
26443;BME280;5563;52.296;6.806;2023-05-09T11:16:21;101030.84;;;19.03;73.39
26443;BME280;5563;52.296;6.806;2023-05-09T11:18:54;101047.53;;;19.31;72.44
26443;BME280;5563;52.296;6.806;2023-05-09T11:21:21;101036.06;;;19.60;72.90
26443;BME280;5563;52.296;6.806;2023-05-09T11:23:58;101036.53;;;19.94;71.73
26443;BME280;5563;52.296;6.806;2023-05-09T11:26:27;101027.66;;;20.30;70.76
26443;BME280;5563;52.296;6.806;2023-05-09T11:29:05;101006.38;;;20.42;68.43
26443;BME280;5563;52.296;6.806;2023-05-09T11:31:32;100998.09;;;20.58;65.90
26443;BME280;5563;52.296;6.806;2023-05-09T11:34:05;101001.94;;;20.64;64.51
26443;BME280;5563;52.296;6.806;2023-05-09T11:36:34;100995.69;;;20.49;62.63
26443;BME280;5563;52.296;6.806;2023-05-09T11:39:10;100986.72;;;20.48;61.84
26443;BME280;5563;52.296;6.806;2023-05-09T11:41:45;100982.19;;;20.40;62.87
26443;BME280;5563;52.296;6.806;2023-05-09T11:44:20;100973.81;;;20.50;64.49
26443;BME280;5563;52.296;6.806;2023-05-09T11:46:53;100985.50;;;20.65;62.83
26443;BME280;5563;52.296;6.806;2023-05-09T11:49:28;100979.44;;;20.78;61.92
26443;BME280;5563;52.296;6.806;2023-05-09T11:51:58;100961.97;;;20.80;61.59
26443;BME280;5563;52.296;6.806;2023-05-09T11:54:32;100980.78;;;20.96;59.88
26443;BME280;5563;52.296;6.806;2023-05-09T11:56:59;100967.69;;;20.85;59.62
26443;BME280;5563;52.296;6.806;2023-05-09T11:59:33;100971.69;;;20.89;60.89
26443;BME280;5563;52.296;6.806;2023-05-09T12:02:06;100972.44;;;20.69;58.21
26443;BME280;5563;52.296;6.806;2023-05-09T12:04:40;100969.63;;;20.62;58.61
26443;BME280;5563;52.296;6.806;2023-05-09T12:07:10;100969.25;;;20.65;59.39
26443;BME280;5563;52.296;6.806;2023-05-09T12:09:37;100957.59;;;20.65;59.41
26443;BME280;5563;52.296;6.806;2023-05-09T12:12:12;100938.41;;;20.52;58.39
26443;BME280;5563;52.296;6.806;2023-05-09T12:14:40;100939.34;;;20.59;58.71
26443;BME280;5563;52.296;6.806;2023-05-09T12:17:13;100943.75;;;20.60;58.82
26443;BME280;5563;52.296;6.806;2023-05-09T12:19:46;100948.16;;;20.61;59.99
26443;BME280;5563;52.296;6.806;2023-05-09T12:22:20;100920.38;;;20.44;58.50
26443;BME280;5563;52.296;6.806;2023-05-09T12:24:48;100930.19;;;20.45;59.25
26443;BME280;5563;52.296;6.806;2023-05-09T12:27:22;100949.06;;;20.53;60.33
26443;BME280;5563;52.296;6.806;2023-05-09T12:29:49;100940.66;;;20.48;60.32
26443;BME280;5563;52.296;6.806;2023-05-09T12:32:22;100933.34;;;20.34;60.35
26443;BME280;5563;52.296;6.806;2023-05-09T12:34:49;100928.28;;;20.16;59.85
26443;BME280;5563;52.296;6.806;2023-05-09T12:37:24;100928.97;;;20.10;62.00
26443;BME280;5563;52.296;6.806;2023-05-09T12:40:02;100947.94;;;20.10;62.87
26443;BME280;5563;52.296;6.806;2023-05-09T12:42:44;100927.50;;;19.85;65.15
26443;BME280;5563;52.296;6.806;2023-05-09T12:45:31;100925.06;;;19.76;66.90
26443;BME280;5563;52.296;6.806;2023-05-09T12:48:05;100927.28;;;19.72;67.39
26443;BME280;5563;52.296;6.806;2023-05-09T12:50:46;100923.53;;;19.73;67.45
26443;BME280;5563;52.296;6.806;2023-05-09T12:53:26;100939.88;;;19.80;67.78
26443;BME280;5563;52.296;6.806;2023-05-09T12:56:03;100922.81;;;19.57;67.03
26443;BME280;5563;52.296;6.806;2023-05-09T12:58:36;100943.06;;;19.38;67.72
26443;BME280;5563;52.296;6.806;2023-05-09T13:01:03;100936.03;;;19.21;68.49
26443;BME280;5563;52.296;6.806;2023-05-09T13:03:32;100944.16;;;19.13;68.88
26443;BME280;5563;52.296;6.806;2023-05-09T13:06:11;100920.84;;;18.81;69.52
26443;BME280;5563;52.296;6.806;2023-05-09T13:08:56;100935.88;;;18.76;69.83
26443;BME280;5563;52.296;6.806;2023-05-09T13:11:23;100938.09;;;18.72;70.33
26443;BME280;5563;52.296;6.806;2023-05-09T13:13:56;100933.19;;;18.76;71.40
26443;BME280;5563;52.296;6.806;2023-05-09T13:16:30;100918.16;;;18.73;71.25
26443;BME280;5563;52.296;6.806;2023-05-09T13:18:57;100924.53;;;18.80;70.71
26443;BME280;5563;52.296;6.806;2023-05-09T13:21:31;100911.75;;;18.74;70.16
26443;BME280;5563;52.296;6.806;2023-05-09T13:23:58;100903.34;;;18.69;70.60
26443;BME280;5563;52.296;6.806;2023-05-09T13:26:31;100916.31;;;18.74;70.99
26443;BME280;5563;52.296;6.806;2023-05-09T13:28:58;100898.78;;;18.62;70.87
26443;BME280;5563;52.296;6.806;2023-05-09T13:31:32;100915.44;;;18.73;70.62
26443;BME280;5563;52.296;6.806;2023-05-09T13:33:59;100912.94;;;18.72;70.97
26443;BME280;5563;52.296;6.806;2023-05-09T13:36:32;100907.34;;;18.73;71.32
26443;BME280;5563;52.296;6.806;2023-05-09T13:38:59;100883.25;;;18.64;72.08
26443;BME280;5563;52.296;6.806;2023-05-09T13:41:33;100890.16;;;18.74;72.04
26443;BME280;5563;52.296;6.806;2023-05-09T13:44:13;100886.72;;;18.80;71.04
26443;BME280;5563;52.296;6.806;2023-05-09T13:46:40;100891.47;;;18.78;70.97